sensor_id;sensor_type;location;lat;lon;timestamp;P1;durP1;ratioP1;P2;durP2;ratioP2
1503;SDS011;743;47.076;15.494;2022-07-06T00:00:12;263.40;;;169.57;;
1503;SDS011;743;47.076;15.494;2022-07-06T00:02:39;268.03;;;168.57;;
1503;SDS011;743;47.076;15.494;2022-07-06T00:05:08;266.30;;;161.30;;
1503;SDS011;743;47.076;15.494;2022-07-06T00:07:35;262.13;;;161.80;;
1503;SDS011;743;47.076;15.494;2022-07-06T00:10:03;262.30;;;167.77;;
1503;SDS011;743;47.076;15.494;2022-07-06T00:12:31;274.57;;;182.00;;
1503;SDS011;743;47.076;15.494;2022-07-06T00:14:58;269.63;;;169.17;;
1503;SDS011;743;47.076;15.494;2022-07-06T00:17:27;277.57;;;164.97;;
1503;SDS011;743;47.076;15.494;2022-07-06T00:19:54;261.27;;;166.83;;
1503;SDS011;743;47.076;15.494;2022-07-06T00:22:21;273.30;;;174.33;;
1503;SDS011;743;47.076;15.494;2022-07-06T00:24:49;273.17;;;167.20;;
1503;SDS011;743;47.076;15.494;2022-07-06T00:27:16;268.33;;;174.80;;
1503;SDS011;743;47.076;15.494;2022-07-06T00:29:43;271.23;;;177.30;;
1503;SDS011;743;47.076;15.494;2022-07-06T00:32:11;274.50;;;172.20;;
1503;SDS011;743;47.076;15.494;2022-07-06T00:34:40;275.47;;;170.03;;
1503;SDS011;743;47.076;15.494;2022-07-06T00:37:07;280.00;;;180.03;;
1503;SDS011;743;47.076;15.494;2022-07-06T00:39:35;268.87;;;170.33;;
1503;SDS011;743;47.076;15.494;2022-07-06T00:42:03;268.90;;;166.90;;
1503;SDS011;743;47.076;15.494;2022-07-06T00:44:30;276.13;;;176.57;;
1503;SDS011;743;47.076;15.494;2022-07-06T00:46:58;266.63;;;169.23;;
1503;SDS011;743;47.076;15.494;2022-07-06T00:49:26;270.43;;;168.90;;
1503;SDS011;743;47.076;15.494;2022-07-06T00:52:12;269.60;;;166.83;;
1503;SDS011;743;47.076;15.494;2022-07-06T00:54:41;266.97;;;165.03;;
1503;SDS011;743;47.076;15.494;2022-07-06T00:57:08;274.00;;;175.00;;
1503;SDS011;743;47.076;15.494;2022-07-06T00:59:37;264.20;;;170.27;;
1503;SDS011;743;47.076;15.494;2022-07-06T01:02:04;271.60;;;170.83;;
1503;SDS011;743;47.076;15.494;2022-07-06T01:04:31;275.33;;;170.57;;
1503;SDS011;743;47.076;15.494;2022-07-06T01:07:00;283.33;;;171.27;;
1503;SDS011;743;47.076;15.494;2022-07-06T01:09:32;255.60;;;155.00;;
1503;SDS011;743;47.076;15.494;2022-07-06T01:11:59;268.70;;;169.83;;
1503;SDS011;743;47.076;15.494;2022-07-06T01:14:26;261.67;;;163.83;;
1503;SDS011;743;47.076;15.494;2022-07-06T01:16:53;273.27;;;166.67;;
1503;SDS011;743;47.076;15.494;2022-07-06T01:19:21;263.07;;;163.43;;
1503;SDS011;743;47.076;15.494;2022-07-06T01:21:50;272.13;;;178.87;;
1503;SDS011;743;47.076;15.494;2022-07-06T01:24:17;268.50;;;169.43;;
1503;SDS011;743;47.076;15.494;2022-07-06T01:26:45;266.73;;;159.07;;
1503;SDS011;743;47.076;15.494;2022-07-06T01:29:12;268.30;;;171.77;;
1503;SDS011;743;47.076;15.494;2022-07-06T01:31:45;268.83;;;169.40;;
1503;SDS011;743;47.076;15.494;2022-07-06T01:34:14;277.67;;;175.33;;
1503;SDS011;743;47.076;15.494;2022-07-06T01:36:41;268.20;;;164.17;;
1503;SDS011;743;47.076;15.494;2022-07-06T01:39:10;273.97;;;173.93;;
1503;SDS011;743;47.076;15.494;2022-07-06T01:41:38;273.53;;;171.30;;
1503;SDS011;743;47.076;15.494;2022-07-06T01:44:06;261.33;;;172.60;;
1503;SDS011;743;47.076;15.494;2022-07-06T01:46:33;264.27;;;169.70;;
1503;SDS011;743;47.076;15.494;2022-07-06T01:49:01;268.17;;;166.57;;
1503;SDS011;743;47.076;15.494;2022-07-06T01:51:28;245.60;;;159.90;;
1503;SDS011;743;47.076;15.494;2022-07-06T01:53:56;257.10;;;165.43;;
1503;SDS011;743;47.076;15.494;2022-07-06T01:56:25;270.40;;;169.50;;
1503;SDS011;743;47.076;15.494;2022-07-06T01:58:52;270.63;;;177.17;;
1503;SDS011;743;47.076;15.494;2022-07-06T02:01:19;273.03;;;171.00;;
1503;SDS011;743;47.076;15.494;2022-07-06T02:03:47;253.90;;;160.23;;
1503;SDS011;743;47.076;15.494;2022-07-06T02:06:15;270.97;;;164.27;;
1503;SDS011;743;47.076;15.494;2022-07-06T02:08:43;269.30;;;170.23;;
1503;SDS011;743;47.076;15.494;2022-07-06T02:11:10;263.30;;;166.70;;
1503;SDS011;743;47.076;15.494;2022-07-06T02:13:41;269.83;;;177.60;;
1503;SDS011;743;47.076;15.494;2022-07-06T02:16:08;268.53;;;202.03;;
1503;SDS011;743;47.076;15.494;2022-07-06T02:18:36;258.37;;;165.83;;
1503;SDS011;743;47.076;15.494;2022-07-06T02:21:03;275.80;;;172.57;;
1503;SDS011;743;47.076;15.494;2022-07-06T02:23:31;248.20;;;155.37;;
1503;SDS011;743;47.076;15.494;2022-07-06T02:26:00;252.77;;;160.67;;
1503;SDS011;743;47.076;15.494;2022-07-06T02:28:29;271.20;;;174.60;;
1503;SDS011;743;47.076;15.494;2022-07-06T02:30:58;261.40;;;166.80;;
1503;SDS011;743;47.076;15.494;2022-07-06T02:33:26;263.47;;;166.43;;
1503;SDS011;743;47.076;15.494;2022-07-06T02:35:54;264.93;;;171.07;;
1503;SDS011;743;47.076;15.494;2022-07-06T02:38:22;264.93;;;166.80;;
1503;SDS011;743;47.076;15.494;2022-07-06T02:40:49;267.27;;;170.03;;
1503;SDS011;743;47.076;15.494;2022-07-06T02:43:17;262.27;;;166.07;;
1503;SDS011;743;47.076;15.494;2022-07-06T02:45:44;263.63;;;158.43;;
1503;SDS011;743;47.076;15.494;2022-07-06T02:48:13;271.77;;;170.23;;
1503;SDS011;743;47.076;15.494;2022-07-06T02:50:41;259.80;;;171.97;;
1503;SDS011;743;47.076;15.494;2022-07-06T02:53:08;249.93;;;163.40;;
1503;SDS011;743;47.076;15.494;2022-07-06T02:55:36;266.90;;;167.53;;
1503;SDS011;743;47.076;15.494;2022-07-06T02:58:04;254.23;;;161.30;;
1503;SDS011;743;47.076;15.494;2022-07-06T03:00:31;262.27;;;178.80;;
1503;SDS011;743;47.076;15.494;2022-07-06T03:02:58;255.60;;;157.73;;
1503;SDS011;743;47.076;15.494;2022-07-06T03:05:28;256.13;;;166.97;;
1503;SDS011;743;47.076;15.494;2022-07-06T03:07:57;253.57;;;163.53;;
1503;SDS011;743;47.076;15.494;2022-07-06T03:10:25;260.07;;;169.70;;
1503;SDS011;743;47.076;15.494;2022-07-06T03:12:52;257.63;;;167.20;;
1503;SDS011;743;47.076;15.494;2022-07-06T03:15:19;258.97;;;162.60;;
1503;SDS011;743;47.076;15.494;2022-07-06T03:17:47;258.67;;;171.70;;
1503;SDS011;743;47.076;15.494;2022-07-06T03:20:14;248.53;;;155.80;;
1503;SDS011;743;47.076;15.494;2022-07-06T03:22:43;250.47;;;160.17;;
1503;SDS011;743;47.076;15.494;2022-07-06T03:25:10;263.10;;;175.87;;
1503;SDS011;743;47.076;15.494;2022-07-06T03:27:37;252.10;;;151.67;;
1503;SDS011;743;47.076;15.494;2022-07-06T03:30:05;248.93;;;156.37;;
1503;SDS011;743;47.076;15.494;2022-07-06T03:32:32;264.23;;;168.40;;
1503;SDS011;743;47.076;15.494;2022-07-06T03:35:00;244.57;;;154.67;;
1503;SDS011;743;47.076;15.494;2022-07-06T03:37:27;252.10;;;162.83;;
1503;SDS011;743;47.076;15.494;2022-07-06T03:39:56;258.00;;;167.13;;
1503;SDS011;743;47.076;15.494;2022-07-06T03:42:23;253.40;;;152.70;;
1503;SDS011;743;47.076;15.494;2022-07-06T03:44:50;254.30;;;161.03;;
1503;SDS011;743;47.076;15.494;2022-07-06T03:47:18;260.63;;;166.13;;
1503;SDS011;743;47.076;15.494;2022-07-06T03:49:46;250.30;;;159.60;;
1503;SDS011;743;47.076;15.494;2022-07-06T03:52:13;263.47;;;167.97;;
1503;SDS011;743;47.076;15.494;2022-07-06T03:54:41;267.07;;;172.47;;
1503;SDS011;743;47.076;15.494;2022-07-06T03:57:10;254.83;;;159.40;;
1503;SDS011;743;47.076;15.494;2022-07-06T03:59:38;252.20;;;159.37;;
1503;SDS011;743;47.076;15.494;2022-07-06T04:02:05;250.90;;;158.77;;
1503;SDS011;743;47.076;15.494;2022-07-06T04:04:33;250.30;;;158.53;;
1503;SDS011;743;47.076;15.494;2022-07-06T04:07:01;270.07;;;167.27;;
1503;SDS011;743;47.076;15.494;2022-07-06T04:09:28;275.33;;;177.07;;
1503;SDS011;743;47.076;15.494;2022-07-06T04:11:56;256.57;;;165.20;;
1503;SDS011;743;47.076;15.494;2022-07-06T04:14:24;258.33;;;163.80;;
1503;SDS011;743;47.076;15.494;2022-07-06T04:16:53;260.27;;;166.60;;
1503;SDS011;743;47.076;15.494;2022-07-06T04:19:20;249.23;;;161.37;;
1503;SDS011;743;47.076;15.494;2022-07-06T04:21:48;240.40;;;156.20;;
1503;SDS011;743;47.076;15.494;2022-07-06T04:24:15;253.80;;;163.37;;
1503;SDS011;743;47.076;15.494;2022-07-06T04:26:42;246.50;;;168.50;;
1503;SDS011;743;47.076;15.494;2022-07-06T04:29:10;248.80;;;159.57;;
1503;SDS011;743;47.076;15.494;2022-07-06T04:31:39;248.60;;;158.77;;
1503;SDS011;743;47.076;15.494;2022-07-06T04:34:06;260.17;;;168.27;;
1503;SDS011;743;47.076;15.494;2022-07-06T04:36:33;258.40;;;165.93;;
1503;SDS011;743;47.076;15.494;2022-07-06T04:39:02;264.40;;;172.23;;
1503;SDS011;743;47.076;15.494;2022-07-06T04:41:29;263.70;;;168.30;;
1503;SDS011;743;47.076;15.494;2022-07-06T04:43:57;272.70;;;181.93;;
1503;SDS011;743;47.076;15.494;2022-07-06T04:46:24;250.20;;;157.13;;
1503;SDS011;743;47.076;15.494;2022-07-06T04:48:53;258.30;;;156.87;;
1503;SDS011;743;47.076;15.494;2022-07-06T04:51:20;245.03;;;158.77;;
1503;SDS011;743;47.076;15.494;2022-07-06T04:53:48;240.93;;;159.07;;
1503;SDS011;743;47.076;15.494;2022-07-06T04:56:16;251.90;;;165.87;;
1503;SDS011;743;47.076;15.494;2022-07-06T04:58:43;264.03;;;170.97;;
1503;SDS011;743;47.076;15.494;2022-07-06T05:01:11;244.93;;;162.93;;
1503;SDS011;743;47.076;15.494;2022-07-06T05:03:39;244.37;;;158.43;;
1503;SDS011;743;47.076;15.494;2022-07-06T05:06:10;254.73;;;170.63;;
1503;SDS011;743;47.076;15.494;2022-07-06T05:08:37;249.57;;;164.47;;
1503;SDS011;743;47.076;15.494;2022-07-06T05:11:04;270.07;;;177.33;;
1503;SDS011;743;47.076;15.494;2022-07-06T05:13:32;274.50;;;174.77;;
1503;SDS011;743;47.076;15.494;2022-07-06T05:16:00;266.37;;;173.00;;
1503;SDS011;743;47.076;15.494;2022-07-06T05:18:30;265.53;;;176.87;;
1503;SDS011;743;47.076;15.494;2022-07-06T05:20:58;258.23;;;168.97;;
1503;SDS011;743;47.076;15.494;2022-07-06T05:23:26;265.77;;;173.97;;
1503;SDS011;743;47.076;15.494;2022-07-06T05:25:54;269.50;;;173.27;;
1503;SDS011;743;47.076;15.494;2022-07-06T05:28:21;265.17;;;177.40;;
1503;SDS011;743;47.076;15.494;2022-07-06T05:30:51;259.23;;;163.43;;
1503;SDS011;743;47.076;15.494;2022-07-06T05:33:18;254.00;;;158.77;;
1503;SDS011;743;47.076;15.494;2022-07-06T05:35:46;255.13;;;161.17;;
1503;SDS011;743;47.076;15.494;2022-07-06T05:38:13;246.07;;;159.20;;
1503;SDS011;743;47.076;15.494;2022-07-06T05:40:43;237.40;;;158.77;;
1503;SDS011;743;47.076;15.494;2022-07-06T05:43:10;247.77;;;156.40;;
1503;SDS011;743;47.076;15.494;2022-07-06T05:45:37;255.80;;;177.57;;
1503;SDS011;743;47.076;15.494;2022-07-06T05:48:05;259.83;;;168.30;;
1503;SDS011;743;47.076;15.494;2022-07-06T05:50:52;261.20;;;170.87;;
1503;SDS011;743;47.076;15.494;2022-07-06T05:53:20;268.90;;;181.97;;
1503;SDS011;743;47.076;15.494;2022-07-06T05:55:49;264.00;;;183.90;;
1503;SDS011;743;47.076;15.494;2022-07-06T05:58:16;266.10;;;182.83;;
1503;SDS011;743;47.076;15.494;2022-07-06T06:00:43;265.97;;;180.43;;
1503;SDS011;743;47.076;15.494;2022-07-06T06:03:11;265.20;;;185.63;;
1503;SDS011;743;47.076;15.494;2022-07-06T06:05:38;274.67;;;180.73;;
1503;SDS011;743;47.076;15.494;2022-07-06T06:08:06;269.30;;;193.40;;
1503;SDS011;743;47.076;15.494;2022-07-06T06:10:33;260.97;;;176.40;;
1503;SDS011;743;47.076;15.494;2022-07-06T06:13:02;265.57;;;171.63;;
1503;SDS011;743;47.076;15.494;2022-07-06T06:15:30;275.40;;;183.60;;
1503;SDS011;743;47.076;15.494;2022-07-06T06:17:57;262.23;;;173.43;;
1503;SDS011;743;47.076;15.494;2022-07-06T06:20:25;260.00;;;163.13;;
1503;SDS011;743;47.076;15.494;2022-07-06T06:22:52;268.53;;;180.73;;
1503;SDS011;743;47.076;15.494;2022-07-06T06:25:20;259.20;;;169.47;;
1503;SDS011;743;47.076;15.494;2022-07-06T06:27:48;262.90;;;174.17;;
1503;SDS011;743;47.076;15.494;2022-07-06T06:30:17;265.10;;;176.90;;
1503;SDS011;743;47.076;15.494;2022-07-06T06:32:44;262.47;;;173.73;;
1503;SDS011;743;47.076;15.494;2022-07-06T06:35:12;262.27;;;174.17;;
1503;SDS011;743;47.076;15.494;2022-07-06T06:37:39;281.53;;;183.33;;
1503;SDS011;743;47.076;15.494;2022-07-06T06:40:07;269.60;;;169.77;;
1503;SDS011;743;47.076;15.494;2022-07-06T06:42:35;272.33;;;177.83;;
1503;SDS011;743;47.076;15.494;2022-07-06T06:45:03;271.53;;;178.63;;
1503;SDS011;743;47.076;15.494;2022-07-06T06:47:33;283.30;;;183.50;;
1503;SDS011;743;47.076;15.494;2022-07-06T06:50:00;252.67;;;162.47;;
1503;SDS011;743;47.076;15.494;2022-07-06T06:52:28;267.73;;;174.67;;
1503;SDS011;743;47.076;15.494;2022-07-06T06:54:55;272.45;;;176.45;;
1503;SDS011;743;47.076;15.494;2022-07-06T06:57:23;266.87;;;168.67;;
1503;SDS011;743;47.076;15.494;2022-07-06T06:59:54;271.77;;;180.13;;
1503;SDS011;743;47.076;15.494;2022-07-06T07:02:22;273.07;;;176.23;;
1503;SDS011;743;47.076;15.494;2022-07-06T07:04:51;290.30;;;192.30;;
1503;SDS011;743;47.076;15.494;2022-07-06T07:07:19;263.47;;;171.30;;
1503;SDS011;743;47.076;15.494;2022-07-06T07:09:46;261.53;;;166.83;;
1503;SDS011;743;47.076;15.494;2022-07-06T07:12:13;267.97;;;181.00;;
1503;SDS011;743;47.076;15.494;2022-07-06T07:14:42;273.90;;;178.37;;
1503;SDS011;743;47.076;15.494;2022-07-06T07:17:10;266.00;;;175.93;;
1503;SDS011;743;47.076;15.494;2022-07-06T07:19:38;276.03;;;184.73;;
1503;SDS011;743;47.076;15.494;2022-07-06T07:22:07;266.73;;;178.00;;
1503;SDS011;743;47.076;15.494;2022-07-06T07:24:36;273.63;;;185.53;;
1503;SDS011;743;47.076;15.494;2022-07-06T07:27:04;291.20;;;191.07;;
1503;SDS011;743;47.076;15.494;2022-07-06T07:29:32;265.47;;;170.10;;
1503;SDS011;743;47.076;15.494;2022-07-06T07:31:59;265.07;;;183.20;;
1503;SDS011;743;47.076;15.494;2022-07-06T07:34:27;267.37;;;185.47;;
1503;SDS011;743;47.076;15.494;2022-07-06T07:36:54;261.47;;;177.10;;
1503;SDS011;743;47.076;15.494;2022-07-06T07:39:24;278.00;;;194.37;;
1503;SDS011;743;47.076;15.494;2022-07-06T07:41:50;279.40;;;186.97;;
1503;SDS011;743;47.076;15.494;2022-07-06T07:44:18;274.20;;;185.03;;
1503;SDS011;743;47.076;15.494;2022-07-06T07:46:45;271.10;;;187.87;;
1503;SDS011;743;47.076;15.494;2022-07-06T07:49:12;265.40;;;182.13;;
1503;SDS011;743;47.076;15.494;2022-07-06T07:51:40;263.90;;;187.73;;
1503;SDS011;743;47.076;15.494;2022-07-06T07:54:07;268.03;;;181.53;;
1503;SDS011;743;47.076;15.494;2022-07-06T07:56:36;271.13;;;194.20;;
1503;SDS011;743;47.076;15.494;2022-07-06T07:59:05;272.27;;;178.23;;
1503;SDS011;743;47.076;15.494;2022-07-06T08:01:33;268.30;;;182.83;;
1503;SDS011;743;47.076;15.494;2022-07-06T08:04:01;274.03;;;186.03;;
1503;SDS011;743;47.076;15.494;2022-07-06T08:06:29;263.17;;;184.20;;
1503;SDS011;743;47.076;15.494;2022-07-06T08:08:57;281.33;;;197.83;;
1503;SDS011;743;47.076;15.494;2022-07-06T08:11:24;281.03;;;194.47;;
1503;SDS011;743;47.076;15.494;2022-07-06T08:13:53;276.20;;;193.83;;
1503;SDS011;743;47.076;15.494;2022-07-06T08:16:20;271.90;;;190.20;;
1503;SDS011;743;47.076;15.494;2022-07-06T08:18:47;272.43;;;198.63;;
1503;SDS011;743;47.076;15.494;2022-07-06T08:21:15;250.73;;;183.73;;
1503;SDS011;743;47.076;15.494;2022-07-06T08:23:43;293.50;;;209.60;;
1503;SDS011;743;47.076;15.494;2022-07-06T08:26:10;271.50;;;189.00;;
1503;SDS011;743;47.076;15.494;2022-07-06T08:28:38;275.87;;;194.87;;
1503;SDS011;743;47.076;15.494;2022-07-06T08:31:07;284.37;;;197.93;;
1503;SDS011;743;47.076;15.494;2022-07-06T08:33:34;267.83;;;183.10;;
1503;SDS011;743;47.076;15.494;2022-07-06T08:36:02;281.67;;;190.40;;
1503;SDS011;743;47.076;15.494;2022-07-06T08:38:30;282.30;;;193.20;;
1503;SDS011;743;47.076;15.494;2022-07-06T08:40:57;267.07;;;178.13;;
1503;SDS011;743;47.076;15.494;2022-07-06T08:43:26;272.77;;;179.80;;
1503;SDS011;743;47.076;15.494;2022-07-06T08:45:54;280.67;;;182.30;;
1503;SDS011;743;47.076;15.494;2022-07-06T08:48:23;273.67;;;179.33;;
1503;SDS011;743;47.076;15.494;2022-07-06T08:50:50;278.40;;;188.00;;
1503;SDS011;743;47.076;15.494;2022-07-06T08:53:21;277.17;;;181.00;;
1503;SDS011;743;47.076;15.494;2022-07-06T08:55:50;272.17;;;177.70;;
1503;SDS011;743;47.076;15.494;2022-07-06T08:58:17;274.97;;;182.47;;
1503;SDS011;743;47.076;15.494;2022-07-06T09:00:45;285.90;;;190.77;;
1503;SDS011;743;47.076;15.494;2022-07-06T09:03:12;281.03;;;186.87;;
1503;SDS011;743;47.076;15.494;2022-07-06T09:05:42;290.83;;;188.40;;
1503;SDS011;743;47.076;15.494;2022-07-06T09:08:12;268.37;;;175.13;;
1503;SDS011;743;47.076;15.494;2022-07-06T09:10:40;256.17;;;171.17;;
1503;SDS011;743;47.076;15.494;2022-07-06T09:13:07;276.77;;;181.80;;
1503;SDS011;743;47.076;15.494;2022-07-06T09:15:36;271.13;;;186.50;;
1503;SDS011;743;47.076;15.494;2022-07-06T09:18:04;270.37;;;178.03;;
1503;SDS011;743;47.076;15.494;2022-07-06T09:20:33;277.27;;;181.57;;
1503;SDS011;743;47.076;15.494;2022-07-06T09:23:02;269.80;;;180.77;;
1503;SDS011;743;47.076;15.494;2022-07-06T09:25:31;275.33;;;179.27;;
1503;SDS011;743;47.076;15.494;2022-07-06T09:27:59;281.50;;;190.13;;
1503;SDS011;743;47.076;15.494;2022-07-06T09:30:28;281.20;;;189.90;;
1503;SDS011;743;47.076;15.494;2022-07-06T09:32:56;287.93;;;199.37;;
1503;SDS011;743;47.076;15.494;2022-07-06T09:35:26;282.10;;;190.87;;
1503;SDS011;743;47.076;15.494;2022-07-06T09:38:05;282.00;;;192.97;;
1503;SDS011;743;47.076;15.494;2022-07-06T09:40:35;286.43;;;206.47;;
1503;SDS011;743;47.076;15.494;2022-07-06T09:43:08;298.53;;;239.40;;
1503;SDS011;743;47.076;15.494;2022-07-06T09:45:37;303.67;;;207.67;;
1503;SDS011;743;47.076;15.494;2022-07-06T09:48:06;298.20;;;199.67;;
1503;SDS011;743;47.076;15.494;2022-07-06T09:50:39;295.37;;;194.33;;
1503;SDS011;743;47.076;15.494;2022-07-06T09:53:08;296.87;;;204.33;;
1503;SDS011;743;47.076;15.494;2022-07-06T09:55:36;310.53;;;220.67;;
1503;SDS011;743;47.076;15.494;2022-07-06T09:58:03;289.60;;;195.43;;
1503;SDS011;743;47.076;15.494;2022-07-06T10:00:31;279.87;;;192.77;;
1503;SDS011;743;47.076;15.494;2022-07-06T10:02:58;283.60;;;198.60;;
1503;SDS011;743;47.076;15.494;2022-07-06T10:05:26;290.90;;;203.40;;
1503;SDS011;743;47.076;15.494;2022-07-06T10:07:57;274.50;;;199.43;;
1503;SDS011;743;47.076;15.494;2022-07-06T10:10:27;269.47;;;188.67;;
1503;SDS011;743;47.076;15.494;2022-07-06T10:12:56;284.90;;;197.80;;
1503;SDS011;743;47.076;15.494;2022-07-06T10:15:24;293.70;;;221.63;;
1503;SDS011;743;47.076;15.494;2022-07-06T10:17:52;285.13;;;194.87;;
1503;SDS011;743;47.076;15.494;2022-07-06T10:20:19;286.37;;;201.03;;
1503;SDS011;743;47.076;15.494;2022-07-06T10:22:47;294.27;;;194.30;;
1503;SDS011;743;47.076;15.494;2022-07-06T10:25:15;292.90;;;206.60;;
1503;SDS011;743;47.076;15.494;2022-07-06T10:27:44;298.13;;;212.70;;
1503;SDS011;743;47.076;15.494;2022-07-06T10:30:13;286.80;;;197.97;;
1503;SDS011;743;47.076;15.494;2022-07-06T10:32:41;303.80;;;220.47;;
1503;SDS011;743;47.076;15.494;2022-07-06T10:35:10;297.60;;;208.50;;
1503;SDS011;743;47.076;15.494;2022-07-06T10:37:38;300.77;;;209.17;;
1503;SDS011;743;47.076;15.494;2022-07-06T10:40:05;293.37;;;205.80;;
1503;SDS011;743;47.076;15.494;2022-07-06T10:42:56;308.97;;;219.23;;
1503;SDS011;743;47.076;15.494;2022-07-06T10:48:17;288.67;;;211.47;;
1503;SDS011;743;47.076;15.494;2022-07-06T10:50:46;301.43;;;219.73;;
1503;SDS011;743;47.076;15.494;2022-07-06T10:53:15;298.63;;;203.50;;
1503;SDS011;743;47.076;15.494;2022-07-06T10:55:44;300.70;;;213.13;;
1503;SDS011;743;47.076;15.494;2022-07-06T10:58:14;304.37;;;217.67;;
1503;SDS011;743;47.076;15.494;2022-07-06T11:00:48;298.97;;;214.83;;
1503;SDS011;743;47.076;15.494;2022-07-06T11:03:30;310.17;;;229.63;;
1503;SDS011;743;47.076;15.494;2022-07-06T11:06:08;289.53;;;204.07;;
1503;SDS011;743;47.076;15.494;2022-07-06T11:08:41;294.40;;;219.57;;
1503;SDS011;743;47.076;15.494;2022-07-06T11:11:13;311.03;;;215.73;;
1503;SDS011;743;47.076;15.494;2022-07-06T11:13:46;308.20;;;211.50;;
1503;SDS011;743;47.076;15.494;2022-07-06T11:16:14;299.23;;;217.30;;
1503;SDS011;743;47.076;15.494;2022-07-06T11:18:41;296.63;;;207.00;;
1503;SDS011;743;47.076;15.494;2022-07-06T11:21:20;299.00;;;218.73;;
1503;SDS011;743;47.076;15.494;2022-07-06T11:23:50;297.63;;;214.90;;
1503;SDS011;743;47.076;15.494;2022-07-06T11:26:17;325.63;;;228.83;;
1503;SDS011;743;47.076;15.494;2022-07-06T11:28:47;331.27;;;226.83;;
1503;SDS011;743;47.076;15.494;2022-07-06T11:31:15;336.90;;;248.93;;
1503;SDS011;743;47.076;15.494;2022-07-06T11:33:44;328.57;;;229.00;;
1503;SDS011;743;47.076;15.494;2022-07-06T11:36:13;341.53;;;250.87;;
1503;SDS011;743;47.076;15.494;2022-07-06T11:38:41;325.20;;;226.07;;
1503;SDS011;743;47.076;15.494;2022-07-06T11:41:10;328.87;;;226.80;;
1503;SDS011;743;47.076;15.494;2022-07-06T11:43:39;332.37;;;235.67;;
1503;SDS011;743;47.076;15.494;2022-07-06T11:46:22;315.67;;;225.87;;
1503;SDS011;743;47.076;15.494;2022-07-06T11:48:53;326.67;;;231.40;;
1503;SDS011;743;47.076;15.494;2022-07-06T11:51:22;324.13;;;233.37;;
1503;SDS011;743;47.076;15.494;2022-07-06T11:53:53;328.27;;;234.93;;
1503;SDS011;743;47.076;15.494;2022-07-06T11:56:21;330.13;;;230.63;;
1503;SDS011;743;47.076;15.494;2022-07-06T11:58:52;320.40;;;226.97;;
1503;SDS011;743;47.076;15.494;2022-07-06T12:01:22;320.53;;;225.57;;
1503;SDS011;743;47.076;15.494;2022-07-06T12:03:50;325.80;;;236.33;;
1503;SDS011;743;47.076;15.494;2022-07-06T12:06:18;322.40;;;228.70;;
1503;SDS011;743;47.076;15.494;2022-07-06T12:08:48;330.03;;;239.93;;
1503;SDS011;743;47.076;15.494;2022-07-06T12:11:22;323.37;;;236.23;;
1503;SDS011;743;47.076;15.494;2022-07-06T12:13:51;336.30;;;243.80;;
1503;SDS011;743;47.076;15.494;2022-07-06T12:16:27;323.77;;;233.40;;
1503;SDS011;743;47.076;15.494;2022-07-06T12:18:56;326.50;;;236.53;;
1503;SDS011;743;47.076;15.494;2022-07-06T12:21:24;329.27;;;236.87;;
1503;SDS011;743;47.076;15.494;2022-07-06T12:23:52;335.40;;;242.57;;
1503;SDS011;743;47.076;15.494;2022-07-06T12:26:21;333.10;;;251.70;;
1503;SDS011;743;47.076;15.494;2022-07-06T12:29:00;332.27;;;253.33;;
1503;SDS011;743;47.076;15.494;2022-07-06T12:31:32;333.83;;;248.10;;
1503;SDS011;743;47.076;15.494;2022-07-06T12:34:00;330.40;;;253.93;;
1503;SDS011;743;47.076;15.494;2022-07-06T12:36:27;322.50;;;234.93;;
1503;SDS011;743;47.076;15.494;2022-07-06T12:38:55;322.57;;;228.17;;
1503;SDS011;743;47.076;15.494;2022-07-06T12:41:30;334.80;;;242.60;;
1503;SDS011;743;47.076;15.494;2022-07-06T12:44:05;329.30;;;244.80;;
1503;SDS011;743;47.076;15.494;2022-07-06T12:46:37;330.37;;;234.87;;
1503;SDS011;743;47.076;15.494;2022-07-06T12:49:13;326.83;;;230.63;;
1503;SDS011;743;47.076;15.494;2022-07-06T12:51:52;336.67;;;252.50;;
1503;SDS011;743;47.076;15.494;2022-07-06T12:54:22;333.37;;;249.27;;
1503;SDS011;743;47.076;15.494;2022-07-06T12:57:00;338.63;;;255.63;;
1503;SDS011;743;47.076;15.494;2022-07-06T12:59:31;328.63;;;248.93;;
1503;SDS011;743;47.076;15.494;2022-07-06T13:02:00;339.10;;;252.90;;
1503;SDS011;743;47.076;15.494;2022-07-06T13:04:27;336.63;;;264.40;;
1503;SDS011;743;47.076;15.494;2022-07-06T13:06:58;343.50;;;272.50;;
1503;SDS011;743;47.076;15.494;2022-07-06T13:09:26;415.13;;;360.97;;
1503;SDS011;743;47.076;15.494;2022-07-06T13:11:54;364.53;;;293.37;;
1503;SDS011;743;47.076;15.494;2022-07-06T13:14:22;354.00;;;278.60;;
1503;SDS011;743;47.076;15.494;2022-07-06T13:16:50;357.83;;;291.67;;
1503;SDS011;743;47.076;15.494;2022-07-06T13:19:20;348.27;;;276.93;;
1503;SDS011;743;47.076;15.494;2022-07-06T13:21:47;359.23;;;273.50;;
1503;SDS011;743;47.076;15.494;2022-07-06T13:24:15;347.97;;;264.93;;
1503;SDS011;743;47.076;15.494;2022-07-06T13:26:42;340.13;;;252.93;;
1503;SDS011;743;47.076;15.494;2022-07-06T13:29:10;344.97;;;267.43;;
1503;SDS011;743;47.076;15.494;2022-07-06T13:31:38;360.00;;;272.00;;
1503;SDS011;743;47.076;15.494;2022-07-06T13:34:06;348.70;;;275.70;;
1503;SDS011;743;47.076;15.494;2022-07-06T13:36:35;340.53;;;258.47;;
1503;SDS011;743;47.076;15.494;2022-07-06T13:39:03;342.93;;;269.17;;
1503;SDS011;743;47.076;15.494;2022-07-06T13:41:30;349.37;;;263.43;;
1503;SDS011;743;47.076;15.494;2022-07-06T13:44:00;346.13;;;265.27;;
1503;SDS011;743;47.076;15.494;2022-07-06T13:46:28;343.53;;;257.07;;
1503;SDS011;743;47.076;15.494;2022-07-06T13:48:56;343.37;;;268.07;;
1503;SDS011;743;47.076;15.494;2022-07-06T13:51:24;330.03;;;245.70;;
1503;SDS011;743;47.076;15.494;2022-07-06T13:53:55;356.50;;;267.03;;
1503;SDS011;743;47.076;15.494;2022-07-06T13:56:22;336.07;;;248.03;;
1503;SDS011;743;47.076;15.494;2022-07-06T13:58:49;336.20;;;252.90;;
1503;SDS011;743;47.076;15.494;2022-07-06T14:01:17;342.90;;;257.93;;
1503;SDS011;743;47.076;15.494;2022-07-06T14:03:44;336.27;;;252.37;;
1503;SDS011;743;47.076;15.494;2022-07-06T14:06:13;331.63;;;246.97;;
1503;SDS011;743;47.076;15.494;2022-07-06T14:08:42;341.67;;;254.07;;
1503;SDS011;743;47.076;15.494;2022-07-06T14:11:11;338.67;;;257.27;;
1503;SDS011;743;47.076;15.494;2022-07-06T14:13:38;341.37;;;256.10;;
1503;SDS011;743;47.076;15.494;2022-07-06T14:16:06;338.07;;;255.97;;
1503;SDS011;743;47.076;15.494;2022-07-06T14:18:33;342.10;;;258.33;;
1503;SDS011;743;47.076;15.494;2022-07-06T14:21:01;336.47;;;266.10;;
1503;SDS011;743;47.076;15.494;2022-07-06T14:23:29;350.13;;;267.97;;
1503;SDS011;743;47.076;15.494;2022-07-06T14:25:57;336.90;;;258.93;;
1503;SDS011;743;47.076;15.494;2022-07-06T14:28:26;337.57;;;261.67;;
1503;SDS011;743;47.076;15.494;2022-07-06T14:30:53;352.77;;;275.50;;